TAM3482 SBFI-SBCT
Flight info
| Callsign | TAM3482 |
|---|---|
| Flight time | 0h 54m |
| Altitude | 37000 |
| Route | KAMIL UM548 PUNTO |
| Aircraft | A320/M-SDE3FGHIRWY/LB1 |
Departure
| Time | 2026-05-04 21:36 |
|---|---|
| Airport | Cataratas International Airport (SBFI) |
Arrival
| Time | 2026-05-04 22:30 |
|---|---|
| Airport | Curitiba-Afonso Pena International Airport (SBCT) |
| Time | Latitude | Longitude | Altitude | Speed | Heading |
|---|---|---|---|---|---|
| 2026-05-04 21:14 | -25.59668 | -54.48884 | 799 ft | 0 kts | 221° |
| 2026-05-04 21:27 | -25.59650 | -54.48869 | 798 ft | 4 kts | 206° |
| 2026-05-04 21:27 | -25.59626 | -54.48861 | 798 ft | 4 kts | 169° |
| 2026-05-04 21:27 | -25.59609 | -54.48870 | 799 ft | 1 kts | 131° |
| 2026-05-04 21:27 | -25.59606 | -54.48873 | 799 ft | 0 kts | 131° |
| 2026-05-04 21:31 | -25.59622 | -54.48854 | 799 ft | 11 kts | 131° |
| 2026-05-04 21:31 | -25.59680 | -54.48779 | 798 ft | 13 kts | 131° |
| 2026-05-04 21:32 | -25.59717 | -54.48731 | 798 ft | 12 kts | 131° |
| 2026-05-04 21:32 | -25.59769 | -54.48665 | 798 ft | 11 kts | 131° |
| 2026-05-04 21:32 | -25.59835 | -54.48581 | 798 ft | 12 kts | 131° |
| 2026-05-04 21:32 | -25.59847 | -54.48530 | 797 ft | 10 kts | 70° |
| 2026-05-04 21:33 | -25.59805 | -54.48468 | 795 ft | 11 kts | 91° |
| 2026-05-04 21:33 | -25.59838 | -54.48409 | 796 ft | 8 kts | 131° |
| 2026-05-04 21:33 | -25.59890 | -54.48344 | 797 ft | 17 kts | 131° |
| 2026-05-04 21:33 | -25.59981 | -54.48224 | 798 ft | 22 kts | 129° |
| 2026-05-04 21:34 | -25.60076 | -54.48094 | 801 ft | 22 kts | 130° |
| 2026-05-04 21:34 | -25.60169 | -54.47980 | 800 ft | 11 kts | 144° |
| 2026-05-04 21:34 | -25.60230 | -54.47942 | 800 ft | 9 kts | 127° |
| 2026-05-04 21:34 | -25.60207 | -54.47926 | 800 ft | 4 kts | 317° |
| 2026-05-04 21:35 | -25.60201 | -54.47938 | 800 ft | 0 kts | 302° |
| 2026-05-04 21:35 | -25.60199 | -54.47943 | 800 ft | 8 kts | 302° |
| 2026-05-04 21:35 | -25.60010 | -54.48192 | 799 ft | 79 kts | 312° |
| 2026-05-04 21:35 | -25.59492 | -54.48843 | 801 ft | 142 kts | 311° |
| 2026-05-04 21:36 | -25.58765 | -54.49769 | 1183 ft | 163 kts | 311° |
| 2026-05-04 21:36 | -25.58027 | -54.50731 | 1950 ft | 164 kts | 309° |
| 2026-05-04 21:36 | -25.57289 | -54.51682 | 2738 ft | 164 kts | 308° |
| 2026-05-04 21:36 | -25.56515 | -54.52674 | 3234 ft | 180 kts | 311° |
| 2026-05-04 21:37 | -25.55652 | -54.53776 | 3609 ft | 197 kts | 311° |
| 2026-05-04 21:37 | -25.54721 | -54.54970 | 4106 ft | 210 kts | 311° |
| 2026-05-04 21:37 | -25.53757 | -54.56211 | 4855 ft | 214 kts | 311° |
| 2026-05-04 21:37 | -25.52578 | -54.57227 | 5599 ft | 226 kts | 339° |
| 2026-05-04 21:38 | -25.50964 | -54.57233 | 6167 ft | 248 kts | 17° |
| 2026-05-04 21:38 | -25.49535 | -54.56060 | 6730 ft | 275 kts | 52° |
| 2026-05-04 21:38 | -25.48853 | -54.54033 | 7616 ft | 288 kts | 77° |
| 2026-05-04 21:38 | -25.48314 | -54.51886 | 8551 ft | 289 kts | 59° |
| 2026-05-04 21:39 | -25.47105 | -54.50145 | 9492 ft | 288 kts | 41° |
| 2026-05-04 21:39 | -25.45558 | -54.48711 | 10403 ft | 293 kts | 34° |
| 2026-05-04 21:39 | -25.43818 | -54.47341 | 10821 ft | 316 kts | 32° |
| 2026-05-04 21:39 | -25.41957 | -54.45920 | 11164 ft | 340 kts | 32° |
| 2026-05-04 21:40 | -25.39991 | -54.44368 | 11750 ft | 352 kts | 34° |
| 2026-05-04 21:40 | -25.38000 | -54.42714 | 12532 ft | 358 kts | 35° |
| 2026-05-04 21:40 | -25.36053 | -54.41025 | 13301 ft | 363 kts | 36° |
| 2026-05-04 21:40 | -25.34145 | -54.39152 | 14061 ft | 370 kts | 47° |
| 2026-05-04 21:41 | -25.32805 | -54.36720 | 14787 ft | 379 kts | 66° |
| 2026-05-04 21:41 | -25.32248 | -54.33836 | 15503 ft | 387 kts | 86° |
| 2026-05-04 21:41 | -25.32607 | -54.30871 | 16198 ft | 395 kts | 107° |
| 2026-05-04 21:41 | -25.33777 | -54.28107 | 16883 ft | 400 kts | 117° |
| 2026-05-04 21:42 | -25.35099 | -54.25390 | 17555 ft | 403 kts | 117° |
| 2026-05-04 21:42 | -25.36447 | -54.22643 | 18214 ft | 407 kts | 117° |
| 2026-05-04 21:42 | -25.37808 | -54.19873 | 18833 ft | 411 kts | 117° |
| 2026-05-04 21:42 | -25.39167 | -54.17093 | 19427 ft | 415 kts | 117° |
| 2026-05-04 21:43 | -25.40534 | -54.14288 | 20013 ft | 418 kts | 117° |
| 2026-05-04 21:43 | -25.41913 | -54.11447 | 20594 ft | 422 kts | 117° |
| 2026-05-04 21:43 | -25.43309 | -54.08567 | 21151 ft | 425 kts | 117° |
| 2026-05-04 21:43 | -25.44721 | -54.05651 | 21699 ft | 429 kts | 117° |
| 2026-05-04 21:44 | -25.46133 | -54.02732 | 22219 ft | 432 kts | 117° |
| 2026-05-04 21:44 | -25.47546 | -53.99810 | 22730 ft | 435 kts | 117° |
| 2026-05-04 21:44 | -25.48992 | -53.96822 | 23236 ft | 439 kts | 117° |
| 2026-05-04 21:44 | -25.50435 | -53.93838 | 23727 ft | 442 kts | 117° |
| 2026-05-04 21:45 | -25.51873 | -53.90858 | 24192 ft | 445 kts | 117° |
| 2026-05-04 21:45 | -25.53334 | -53.87821 | 24649 ft | 448 kts | 117° |
| 2026-05-04 21:45 | -25.54813 | -53.84743 | 25090 ft | 451 kts | 117° |
| 2026-05-04 21:45 | -25.56295 | -53.81670 | 25513 ft | 454 kts | 117° |
| 2026-05-04 21:46 | -25.57594 | -53.78485 | 25925 ft | 456 kts | 108° |
| 2026-05-04 21:46 | -25.58430 | -53.75097 | 26332 ft | 457 kts | 99° |
| 2026-05-04 21:46 | -25.58769 | -53.71599 | 26735 ft | 458 kts | 90° |
| 2026-05-04 21:46 | -25.58783 | -53.68059 | 27131 ft | 460 kts | 89° |
| 2026-05-04 21:47 | -25.58796 | -53.64502 | 27517 ft | 463 kts | 89° |
| 2026-05-04 21:47 | -25.58817 | -53.60974 | 27879 ft | 466 kts | 89° |
| 2026-05-04 21:47 | -25.58841 | -53.57376 | 28239 ft | 468 kts | 89° |
| 2026-05-04 21:47 | -25.58867 | -53.53713 | 28588 ft | 471 kts | 89° |
| 2026-05-04 21:48 | -25.58890 | -53.50127 | 28915 ft | 473 kts | 89° |
| 2026-05-04 21:48 | -25.58911 | -53.46474 | 29241 ft | 475 kts | 89° |
| 2026-05-04 21:48 | -25.58930 | -53.42808 | 29556 ft | 478 kts | 89° |
| 2026-05-04 21:48 | -25.58948 | -53.39117 | 29871 ft | 480 kts | 89° |
| 2026-05-04 21:49 | -25.58967 | -53.35418 | 30171 ft | 482 kts | 89° |
| 2026-05-04 21:49 | -25.58984 | -53.31702 | 30563 ft | 482 kts | 89° |
| 2026-05-04 21:49 | -25.58998 | -53.27991 | 30994 ft | 480 kts | 89° |
| 2026-05-04 21:49 | -25.59010 | -53.24300 | 31407 ft | 480 kts | 89° |
| 2026-05-04 21:50 | -25.59021 | -53.20604 | 31814 ft | 479 kts | 89° |
| 2026-05-04 21:50 | -25.59031 | -53.16922 | 32220 ft | 478 kts | 89° |
| 2026-05-04 21:50 | -25.59041 | -53.13242 | 32620 ft | 477 kts | 89° |
| 2026-05-04 21:50 | -25.59050 | -53.09575 | 33008 ft | 476 kts | 89° |
| 2026-05-04 21:51 | -25.59056 | -53.05904 | 33397 ft | 476 kts | 89° |
| 2026-05-04 21:51 | -25.59061 | -53.02243 | 33768 ft | 475 kts | 89° |
| 2026-05-04 21:51 | -25.59070 | -52.98592 | 34155 ft | 474 kts | 89° |
| 2026-05-04 21:51 | -25.59078 | -52.94939 | 34532 ft | 473 kts | 89° |
| 2026-05-04 21:52 | -25.59087 | -52.91298 | 34910 ft | 473 kts | 89° |
| 2026-05-04 21:52 | -25.59094 | -52.87662 | 35268 ft | 472 kts | 89° |
| 2026-05-04 21:52 | -25.59097 | -52.84025 | 35611 ft | 471 kts | 89° |
| 2026-05-04 21:52 | -25.59096 | -52.80399 | 35945 ft | 470 kts | 89° |
| 2026-05-04 21:53 | -25.59096 | -52.76782 | 36263 ft | 470 kts | 89° |
| 2026-05-04 21:53 | -25.59096 | -52.73165 | 36563 ft | 469 kts | 89° |
| 2026-05-04 21:53 | -25.59096 | -52.69553 | 36842 ft | 469 kts | 89° |
| 2026-05-04 21:53 | -25.59097 | -52.65932 | 37054 ft | 470 kts | 89° |
| 2026-05-04 21:54 | -25.59095 | -52.62356 | 37109 ft | 470 kts | 88° |
| 2026-05-04 21:54 | -25.59088 | -52.55119 | 37112 ft | 470 kts | 88° |
| 2026-05-04 21:55 | -25.59073 | -52.47878 | 37114 ft | 470 kts | 88° |
| 2026-05-04 21:55 | -25.59051 | -52.40632 | 37107 ft | 470 kts | 88° |
| 2026-05-04 21:56 | -25.59032 | -52.33393 | 37112 ft | 470 kts | 88° |
| 2026-05-04 21:56 | -25.59015 | -52.26153 | 37116 ft | 470 kts | 88° |
| 2026-05-04 21:57 | -25.58994 | -52.18916 | 37111 ft | 470 kts | 88° |
| 2026-05-04 21:57 | -25.58964 | -52.11681 | 37115 ft | 470 kts | 88° |
| 2026-05-04 21:58 | -25.58933 | -52.04443 | 37111 ft | 470 kts | 88° |
| 2026-05-04 21:58 | -25.58897 | -51.97210 | 37110 ft | 470 kts | 88° |
| 2026-05-04 21:59 | -25.58861 | -51.89975 | 37111 ft | 470 kts | 88° |
| 2026-05-04 21:59 | -25.58822 | -51.82790 | 37111 ft | 470 kts | 88° |
| 2026-05-04 22:00 | -25.58768 | -51.75551 | 37110 ft | 470 kts | 88° |
| 2026-05-04 22:00 | -25.58721 | -51.68318 | 37110 ft | 470 kts | 88° |
| 2026-05-04 22:01 | -25.58673 | -51.61076 | 37110 ft | 470 kts | 88° |
| 2026-05-04 22:01 | -25.58612 | -51.53843 | 37113 ft | 470 kts | 88° |
| 2026-05-04 22:02 | -25.58548 | -51.46598 | 37112 ft | 470 kts | 88° |
| 2026-05-04 22:02 | -25.58482 | -51.39362 | 37115 ft | 470 kts | 88° |
| 2026-05-04 22:03 | -25.58414 | -51.32171 | 37112 ft | 470 kts | 88° |
| 2026-05-04 22:03 | -25.58347 | -51.24936 | 37109 ft | 469 kts | 88° |
| 2026-05-04 22:04 | -25.58275 | -51.17711 | 37109 ft | 469 kts | 88° |
| 2026-05-04 22:04 | -25.58194 | -51.10468 | 37109 ft | 469 kts | 88° |
| 2026-05-04 22:05 | -25.58110 | -51.03238 | 37115 ft | 469 kts | 88° |
| 2026-05-04 22:05 | -25.58033 | -50.96001 | 37108 ft | 469 kts | 88° |
| 2026-05-04 22:06 | -25.57946 | -50.88777 | 37108 ft | 469 kts | 88° |
| 2026-05-04 22:06 | -25.57849 | -50.81549 | 37108 ft | 469 kts | 88° |
| 2026-05-04 22:07 | -25.57742 | -50.74362 | 37107 ft | 469 kts | 88° |
| 2026-05-04 22:07 | -25.57643 | -50.67103 | 37107 ft | 469 kts | 88° |
| 2026-05-04 22:08 | -25.57546 | -50.59876 | 37112 ft | 469 kts | 88° |
| 2026-05-04 22:08 | -25.57437 | -50.52644 | 37107 ft | 469 kts | 88° |
| 2026-05-04 22:09 | -25.57327 | -50.45462 | 37107 ft | 469 kts | 88° |
| 2026-05-04 22:09 | -25.57207 | -50.38230 | 37081 ft | 470 kts | 87° |
| 2026-05-04 22:09 | -25.57145 | -50.34598 | 36280 ft | 474 kts | 87° |
| 2026-05-04 22:10 | -25.57082 | -50.30921 | 35292 ft | 479 kts | 88° |
| 2026-05-04 22:10 | -25.57019 | -50.27218 | 34347 ft | 482 kts | 88° |
| 2026-05-04 22:10 | -25.56958 | -50.23528 | 33934 ft | 473 kts | 88° |
| 2026-05-04 22:10 | -25.56899 | -50.19943 | 33808 ft | 458 kts | 87° |
| 2026-05-04 22:11 | -25.56840 | -50.16464 | 33603 ft | 446 kts | 87° |
| 2026-05-04 22:11 | -25.56780 | -50.13058 | 33204 ft | 439 kts | 87° |
| 2026-05-04 22:11 | -25.56844 | -50.09695 | 32732 ft | 435 kts | 95° |
| 2026-05-04 22:11 | -25.57404 | -50.06392 | 32235 ft | 433 kts | 105° |
| 2026-05-04 22:12 | -25.58446 | -50.03326 | 31742 ft | 431 kts | 115° |
| 2026-05-04 22:12 | -25.59973 | -50.00462 | 31231 ft | 428 kts | 123° |
| 2026-05-04 22:12 | -25.61628 | -49.97764 | 30716 ft | 425 kts | 123° |
| 2026-05-04 22:12 | -25.63303 | -49.95038 | 30206 ft | 422 kts | 123° |
| 2026-05-04 22:13 | -25.64948 | -49.92358 | 29705 ft | 418 kts | 123° |
| 2026-05-04 22:13 | -25.66560 | -49.89730 | 29203 ft | 414 kts | 123° |
| 2026-05-04 22:13 | -25.68168 | -49.87104 | 28401 ft | 408 kts | 123° |
| 2026-05-04 22:13 | -25.69752 | -49.84514 | 27562 ft | 403 kts | 123° |
| 2026-05-04 22:14 | -25.71324 | -49.81943 | 26720 ft | 398 kts | 123° |
| 2026-05-04 22:14 | -25.72852 | -49.79442 | 25898 ft | 393 kts | 123° |
| 2026-05-04 22:14 | -25.74395 | -49.76919 | 25081 ft | 388 kts | 123° |
| 2026-05-04 22:14 | -25.75886 | -49.74476 | 24273 ft | 383 kts | 123° |
| 2026-05-04 22:15 | -25.77378 | -49.72030 | 23461 ft | 379 kts | 123° |
| 2026-05-04 22:15 | -25.78848 | -49.69618 | 22681 ft | 374 kts | 123° |
| 2026-05-04 22:15 | -25.80297 | -49.67247 | 21894 ft | 370 kts | 123° |
| 2026-05-04 22:15 | -25.81715 | -49.64930 | 21132 ft | 365 kts | 123° |
| 2026-05-04 22:16 | -25.83130 | -49.62609 | 20367 ft | 361 kts | 123° |
| 2026-05-04 22:16 | -25.84527 | -49.60311 | 19615 ft | 357 kts | 123° |
| 2026-05-04 22:16 | -25.85912 | -49.58034 | 18866 ft | 353 kts | 123° |
| 2026-05-04 22:16 | -25.87278 | -49.55782 | 18139 ft | 349 kts | 123° |
| 2026-05-04 22:17 | -25.88627 | -49.53559 | 17427 ft | 346 kts | 123° |
| 2026-05-04 22:17 | -25.89965 | -49.51355 | 16711 ft | 342 kts | 123° |
| 2026-05-04 22:17 | -25.91291 | -49.49170 | 16024 ft | 339 kts | 123° |
| 2026-05-04 22:17 | -25.92601 | -49.47008 | 15341 ft | 335 kts | 123° |
| 2026-05-04 22:18 | -25.93465 | -49.45585 | 14889 ft | 333 kts | 123° |
| 2026-05-04 22:18 | -25.94627 | -49.43384 | 14215 ft | 328 kts | 110° |
| 2026-05-04 22:18 | -25.95188 | -49.40150 | 13341 ft | 319 kts | 86° |
| 2026-05-04 22:18 | -25.94830 | -49.37755 | 12665 ft | 312 kts | 69° |
| 2026-05-04 22:19 | -25.94245 | -49.36274 | 12210 ft | 307 kts | 57° |
| 2026-05-04 22:19 | -25.92491 | -49.33878 | 11286 ft | 300 kts | 43° |
| 2026-05-04 22:19 | -25.91527 | -49.32786 | 10822 ft | 298 kts | 43° |
| 2026-05-04 22:19 | -25.90079 | -49.31145 | 10139 ft | 296 kts | 43° |
| 2026-05-04 22:20 | -25.88659 | -49.29532 | 9758 ft | 289 kts | 43° |
| 2026-05-04 22:20 | -25.87252 | -49.27933 | 9550 ft | 289 kts | 43° |
| 2026-05-04 22:20 | -25.85845 | -49.26339 | 9322 ft | 290 kts | 43° |
| 2026-05-04 22:20 | -25.84435 | -49.24740 | 9078 ft | 287 kts | 43° |
| 2026-05-04 22:21 | -25.83060 | -49.23176 | 8850 ft | 279 kts | 43° |
| 2026-05-04 22:21 | -25.81710 | -49.21639 | 8447 ft | 274 kts | 43° |
| 2026-05-04 22:21 | -25.80422 | -49.20174 | 8198 ft | 256 kts | 43° |
| 2026-05-04 22:21 | -25.79216 | -49.18804 | 8007 ft | 242 kts | 42° |
| 2026-05-04 22:22 | -25.78056 | -49.17490 | 7808 ft | 235 kts | 42° |
| 2026-05-04 22:22 | -25.76928 | -49.16217 | 7623 ft | 228 kts | 42° |
| 2026-05-04 22:22 | -25.75828 | -49.14973 | 7444 ft | 224 kts | 42° |
| 2026-05-04 22:22 | -25.74753 | -49.13757 | 7259 ft | 223 kts | 42° |
| 2026-05-04 22:23 | -25.73654 | -49.12515 | 7080 ft | 222 kts | 42° |
| 2026-05-04 22:23 | -25.72587 | -49.11308 | 6903 ft | 222 kts | 42° |
| 2026-05-04 22:23 | -25.71502 | -49.10114 | 6732 ft | 215 kts | 40° |
| 2026-05-04 22:23 | -25.70466 | -49.09005 | 6572 ft | 203 kts | 40° |
| 2026-05-04 22:24 | -25.69465 | -49.07941 | 6331 ft | 196 kts | 40° |
| 2026-05-04 22:24 | -25.68513 | -49.06929 | 6139 ft | 183 kts | 39° |
| 2026-05-04 22:24 | -25.67651 | -49.06009 | 5979 ft | 161 kts | 39° |
| 2026-05-04 22:24 | -25.66872 | -49.05196 | 5820 ft | 148 kts | 33° |
| 2026-05-04 22:25 | -25.65985 | -49.04714 | 5669 ft | 138 kts | 9° |
| 2026-05-04 22:25 | -25.65047 | -49.04656 | 5560 ft | 133 kts | 348° |
| 2026-05-04 22:25 | -25.64188 | -49.04982 | 5417 ft | 133 kts | 329° |
| 2026-05-04 22:25 | -25.63478 | -49.05643 | 5294 ft | 134 kts | 314° |
| 2026-05-04 22:26 | -25.62826 | -49.06381 | 5162 ft | 134 kts | 315° |
| 2026-05-04 22:26 | -25.62170 | -49.07117 | 5028 ft | 134 kts | 315° |
| 2026-05-04 22:26 | -25.61518 | -49.07849 | 4894 ft | 133 kts | 315° |
| 2026-05-04 22:26 | -25.60867 | -49.08582 | 4783 ft | 133 kts | 315° |
| 2026-05-04 22:27 | -25.60219 | -49.09311 | 4663 ft | 133 kts | 315° |
| 2026-05-04 22:27 | -25.59581 | -49.10029 | 4551 ft | 132 kts | 315° |
| 2026-05-04 22:27 | -25.58934 | -49.10753 | 4390 ft | 132 kts | 315° |
| 2026-05-04 22:27 | -25.58289 | -49.11477 | 4208 ft | 132 kts | 315° |
| 2026-05-04 22:28 | -25.57645 | -49.12200 | 4033 ft | 132 kts | 315° |
| 2026-05-04 22:28 | -25.57000 | -49.12922 | 3848 ft | 131 kts | 315° |
| 2026-05-04 22:28 | -25.56359 | -49.13641 | 3681 ft | 131 kts | 315° |
| 2026-05-04 22:28 | -25.55716 | -49.14361 | 3508 ft | 131 kts | 315° |
| 2026-05-04 22:29 | -25.55087 | -49.15087 | 3363 ft | 130 kts | 314° |
| 2026-05-04 22:29 | -25.54454 | -49.15805 | 3215 ft | 130 kts | 315° |
| 2026-05-04 22:29 | -25.53813 | -49.16512 | 3042 ft | 130 kts | 315° |
| 2026-05-04 22:29 | -25.53209 | -49.17173 | 2988 ft | 102 kts | 315° |
| 2026-05-04 22:30 | -25.52829 | -49.17595 | 2988 ft | 53 kts | 315° |
| 2026-05-04 22:30 | -25.52683 | -49.17760 | 2988 ft | 18 kts | 314° |
| 2026-05-04 22:30 | -25.52578 | -49.17880 | 2989 ft | 24 kts | 314° |
| 2026-05-04 22:30 | -25.52522 | -49.17977 | 2991 ft | 9 kts | 250° |
| 2026-05-04 22:31 | -25.52570 | -49.18006 | 2991 ft | 7 kts | 191° |
| 2026-05-04 22:31 | -25.52618 | -49.18001 | 2991 ft | 8 kts | 172° |
| 2026-05-04 22:31 | -25.52714 | -49.17990 | 2991 ft | 17 kts | 179° |
| 2026-05-04 22:31 | -25.52837 | -49.17991 | 2989 ft | 18 kts | 180° |
| 2026-05-04 22:32 | -25.52920 | -49.17925 | 2991 ft | 14 kts | 136° |
| 2026-05-04 22:32 | -25.52976 | -49.17851 | 2991 ft | 12 kts | 110° |
| 2026-05-04 22:32 | -25.52980 | -49.17761 | 2990 ft | 11 kts | 91° |
| 2026-05-04 22:32 | -25.52982 | -49.17677 | 2989 ft | 11 kts | 96° |
| 2026-05-04 22:33 | -25.53019 | -49.17611 | 2989 ft | 10 kts | 134° |
| 2026-05-04 22:33 | -25.53063 | -49.17559 | 2989 ft | 9 kts | 133° |
| 2026-05-04 22:33 | -25.53105 | -49.17510 | 2988 ft | 9 kts | 133° |
| 2026-05-04 22:33 | -25.53148 | -49.17514 | 2988 ft | 7 kts | 229° |
| 2026-05-04 22:34 | -25.53171 | -49.17543 | 2988 ft | 0 kts | 228° |